sensor_id;sensor_type;location;lat;lon;timestamp;P1;durP1;ratioP1;P2;durP2;ratioP2
64873;SDS011;51367;45.204;38.576;2023-07-24T00:00:26;9.23;;;4.72;;
64873;SDS011;51367;45.204;38.576;2023-07-24T00:02:52;4.35;;;3.85;;
64873;SDS011;51367;45.204;38.576;2023-07-24T00:05:19;5.82;;;4.90;;
64873;SDS011;51367;45.204;38.576;2023-07-24T00:07:45;9.93;;;4.25;;
64873;SDS011;51367;45.204;38.576;2023-07-24T00:10:10;4.35;;;4.03;;
64873;SDS011;51367;45.204;38.576;2023-07-24T00:12:37;6.25;;;4.43;;
64873;SDS011;51367;45.204;38.576;2023-07-24T00:15:04;4.97;;;4.55;;
64873;SDS011;51367;45.204;38.576;2023-07-24T00:17:30;4.20;;;3.83;;
64873;SDS011;51367;45.204;38.576;2023-07-24T00:19:56;6.55;;;3.92;;
64873;SDS011;51367;45.204;38.576;2023-07-24T00:22:22;4.60;;;4.20;;
64873;SDS011;51367;45.204;38.576;2023-07-24T00:24:48;4.65;;;4.07;;
64873;SDS011;51367;45.204;38.576;2023-07-24T00:27:14;4.78;;;4.38;;
64873;SDS011;51367;45.204;38.576;2023-07-24T00:29:39;5.80;;;4.28;;
64873;SDS011;51367;45.204;38.576;2023-07-24T00:32:05;4.13;;;3.75;;
64873;SDS011;51367;45.204;38.576;2023-07-24T00:34:32;4.35;;;3.95;;
64873;SDS011;51367;45.204;38.576;2023-07-24T00:36:57;4.78;;;4.30;;
64873;SDS011;51367;45.204;38.576;2023-07-24T00:39:23;6.35;;;4.32;;
64873;SDS011;51367;45.204;38.576;2023-07-24T00:41:49;8.48;;;4.43;;
64873;SDS011;51367;45.204;38.576;2023-07-24T00:44:18;5.38;;;4.75;;
64873;SDS011;51367;45.204;38.576;2023-07-24T00:46:44;5.07;;;4.57;;
64873;SDS011;51367;45.204;38.576;2023-07-24T00:49:11;5.63;;;4.63;;
64873;SDS011;51367;45.204;38.576;2023-07-24T00:51:38;5.25;;;4.55;;
64873;SDS011;51367;45.204;38.576;2023-07-24T00:54:04;5.00;;;4.60;;
64873;SDS011;51367;45.204;38.576;2023-07-24T00:56:32;5.28;;;4.32;;
64873;SDS011;51367;45.204;38.576;2023-07-24T00:58:59;9.00;;;4.70;;
64873;SDS011;51367;45.204;38.576;2023-07-24T01:01:25;6.20;;;4.47;;
64873;SDS011;51367;45.204;38.576;2023-07-24T01:03:52;5.82;;;5.22;;
64873;SDS011;51367;45.204;38.576;2023-07-24T01:06:18;4.32;;;4.03;;
64873;SDS011;51367;45.204;38.576;2023-07-24T01:08:44;4.65;;;4.25;;
64873;SDS011;51367;45.204;38.576;2023-07-24T01:11:15;5.20;;;4.80;;
64873;SDS011;51367;45.204;38.576;2023-07-24T01:13:47;7.97;;;4.72;;
64873;SDS011;51367;45.204;38.576;2023-07-24T01:16:22;4.93;;;4.43;;
64873;SDS011;51367;45.204;38.576;2023-07-24T01:18:55;5.80;;;5.30;;
64873;SDS011;51367;45.204;38.576;2023-07-24T01:21:25;5.18;;;4.68;;
64873;SDS011;51367;45.204;38.576;2023-07-24T01:24:04;4.40;;;4.10;;
64873;SDS011;51367;45.204;38.576;2023-07-24T01:27:08;6.75;;;5.22;;
64873;SDS011;51367;45.204;38.576;2023-07-24T01:29:34;5.22;;;4.72;;
64873;SDS011;51367;45.204;38.576;2023-07-24T01:31:59;5.80;;;5.20;;
64873;SDS011;51367;45.204;38.576;2023-07-24T01:34:25;4.53;;;4.13;;
64873;SDS011;51367;45.204;38.576;2023-07-24T01:36:51;5.35;;;4.78;;
64873;SDS011;51367;45.204;38.576;2023-07-24T01:39:18;5.65;;;5.15;;
64873;SDS011;51367;45.204;38.576;2023-07-24T01:41:45;4.63;;;4.22;;
64873;SDS011;51367;45.204;38.576;2023-07-24T01:44:12;5.25;;;4.55;;
64873;SDS011;51367;45.204;38.576;2023-07-24T01:46:38;5.28;;;4.88;;
64873;SDS011;51367;45.204;38.576;2023-07-24T01:49:04;5.13;;;4.72;;
64873;SDS011;51367;45.204;38.576;2023-07-24T01:51:30;4.40;;;4.00;;
64873;SDS011;51367;45.204;38.576;2023-07-24T01:53:56;4.88;;;4.47;;
64873;SDS011;51367;45.204;38.576;2023-07-24T01:56:22;5.13;;;4.72;;
64873;SDS011;51367;45.204;38.576;2023-07-24T01:58:48;4.93;;;4.53;;
64873;SDS011;51367;45.204;38.576;2023-07-24T02:01:14;5.55;;;4.95;;
64873;SDS011;51367;45.204;38.576;2023-07-24T02:03:40;5.25;;;4.85;;
64873;SDS011;51367;45.204;38.576;2023-07-24T02:06:06;5.70;;;5.00;;
64873;SDS011;51367;45.204;38.576;2023-07-24T02:08:32;5.10;;;4.40;;
64873;SDS011;51367;45.204;38.576;2023-07-24T02:10:57;6.28;;;5.55;;
64873;SDS011;51367;45.204;38.576;2023-07-24T02:13:24;6.50;;;5.90;;
64873;SDS011;51367;45.204;38.576;2023-07-24T02:15:50;9.95;;;4.68;;
64873;SDS011;51367;45.204;38.576;2023-07-24T02:18:17;5.78;;;5.20;;
64873;SDS011;51367;45.204;38.576;2023-07-24T02:20:48;5.13;;;4.60;;
64873;SDS011;51367;45.204;38.576;2023-07-24T02:23:17;5.45;;;4.90;;
64873;SDS011;51367;45.204;38.576;2023-07-24T02:25:43;5.22;;;4.80;;
64873;SDS011;51367;45.204;38.576;2023-07-24T02:28:09;5.07;;;4.57;;
64873;SDS011;51367;45.204;38.576;2023-07-24T02:30:38;5.63;;;4.80;;
64873;SDS011;51367;45.204;38.576;2023-07-24T02:33:05;4.97;;;4.57;;
64873;SDS011;51367;45.204;38.576;2023-07-24T02:35:31;4.68;;;4.28;;
64873;SDS011;51367;45.204;38.576;2023-07-24T02:37:57;5.22;;;4.60;;
64873;SDS011;51367;45.204;38.576;2023-07-24T02:40:22;5.20;;;4.72;;
64873;SDS011;51367;45.204;38.576;2023-07-24T02:42:48;6.25;;;5.28;;
64873;SDS011;51367;45.204;38.576;2023-07-24T02:45:14;4.68;;;4.28;;
64873;SDS011;51367;45.204;38.576;2023-07-24T02:47:40;6.95;;;4.65;;
64873;SDS011;51367;45.204;38.576;2023-07-24T02:50:07;5.35;;;4.65;;
64873;SDS011;51367;45.204;38.576;2023-07-24T02:52:34;4.38;;;3.97;;
64873;SDS011;51367;45.204;38.576;2023-07-24T02:54:59;5.10;;;4.65;;
64873;SDS011;51367;45.204;38.576;2023-07-24T02:57:25;5.82;;;4.78;;
64873;SDS011;51367;45.204;38.576;2023-07-24T02:59:51;5.75;;;4.57;;
64873;SDS011;51367;45.204;38.576;2023-07-24T03:02:17;4.63;;;4.32;;
64873;SDS011;51367;45.204;38.576;2023-07-24T03:04:43;6.30;;;4.80;;
64873;SDS011;51367;45.204;38.576;2023-07-24T03:07:11;4.93;;;4.53;;
64873;SDS011;51367;45.204;38.576;2023-07-24T03:09:36;9.82;;;4.85;;
64873;SDS011;51367;45.204;38.576;2023-07-24T03:12:02;6.28;;;4.97;;
64873;SDS011;51367;45.204;38.576;2023-07-24T03:14:28;6.97;;;5.30;;
64873;SDS011;51367;45.204;38.576;2023-07-24T03:16:54;5.78;;;5.28;;
64873;SDS011;51367;45.204;38.576;2023-07-24T03:19:20;5.75;;;5.15;;
64873;SDS011;51367;45.204;38.576;2023-07-24T03:21:46;6.47;;;4.40;;
64873;SDS011;51367;45.204;38.576;2023-07-24T03:24:12;4.78;;;4.38;;
64873;SDS011;51367;45.204;38.576;2023-07-24T03:26:38;8.52;;;5.22;;
64873;SDS011;51367;45.204;38.576;2023-07-24T03:29:04;4.75;;;4.35;;
64873;SDS011;51367;45.204;38.576;2023-07-24T03:31:30;5.18;;;4.43;;
64873;SDS011;51367;45.204;38.576;2023-07-24T03:33:56;10.13;;;4.03;;
64873;SDS011;51367;45.204;38.576;2023-07-24T03:36:22;5.25;;;4.20;;
64873;SDS011;51367;45.204;38.576;2023-07-24T03:38:48;5.85;;;4.53;;
64873;SDS011;51367;45.204;38.576;2023-07-24T03:41:14;4.18;;;3.78;;
64873;SDS011;51367;45.204;38.576;2023-07-24T03:43:40;5.20;;;4.30;;
64873;SDS011;51367;45.204;38.576;2023-07-24T03:46:06;4.38;;;4.07;;
64873;SDS011;51367;45.204;38.576;2023-07-24T03:48:31;4.80;;;4.32;;
64873;SDS011;51367;45.204;38.576;2023-07-24T03:50:58;4.68;;;4.22;;
64873;SDS011;51367;45.204;38.576;2023-07-24T03:53:27;5.18;;;3.65;;
64873;SDS011;51367;45.204;38.576;2023-07-24T03:55:53;4.40;;;4.10;;
64873;SDS011;51367;45.204;38.576;2023-07-24T03:58:20;6.65;;;4.85;;
64873;SDS011;51367;45.204;38.576;2023-07-24T04:00:46;5.53;;;4.25;;
64873;SDS011;51367;45.204;38.576;2023-07-24T04:03:12;4.68;;;3.78;;
64873;SDS011;51367;45.204;38.576;2023-07-24T04:05:38;4.97;;;3.85;;
64873;SDS011;51367;45.204;38.576;2023-07-24T04:08:03;3.72;;;3.40;;
64873;SDS011;51367;45.204;38.576;2023-07-24T04:10:29;4.07;;;3.78;;
64873;SDS011;51367;45.204;38.576;2023-07-24T04:12:56;5.03;;;3.08;;
64873;SDS011;51367;45.204;38.576;2023-07-24T04:15:22;4.32;;;3.95;;
64873;SDS011;51367;45.204;38.576;2023-07-24T04:17:48;6.93;;;3.47;;
64873;SDS011;51367;45.204;38.576;2023-07-24T04:20:14;5.38;;;3.53;;
64873;SDS011;51367;45.204;38.576;2023-07-24T04:22:40;5.22;;;4.03;;
64873;SDS011;51367;45.204;38.576;2023-07-24T04:25:06;3.50;;;3.20;;
64873;SDS011;51367;45.204;38.576;2023-07-24T04:27:32;4.00;;;3.60;;
64873;SDS011;51367;45.204;38.576;2023-07-24T04:29:58;4.45;;;3.22;;
64873;SDS011;51367;45.204;38.576;2023-07-24T04:32:26;5.40;;;3.40;;
64873;SDS011;51367;45.204;38.576;2023-07-24T04:34:55;4.18;;;3.38;;
64873;SDS011;51367;45.204;38.576;2023-07-24T04:37:21;5.40;;;3.28;;
64873;SDS011;51367;45.204;38.576;2023-07-24T04:39:47;5.35;;;3.03;;
64873;SDS011;51367;45.204;38.576;2023-07-24T04:42:12;9.13;;;3.38;;
64873;SDS011;51367;45.204;38.576;2023-07-24T04:44:38;3.55;;;3.08;;
64873;SDS011;51367;45.204;38.576;2023-07-24T04:47:04;6.07;;;3.63;;
64873;SDS011;51367;45.204;38.576;2023-07-24T04:49:30;8.98;;;3.55;;
64873;SDS011;51367;45.204;38.576;2023-07-24T04:51:58;3.65;;;3.35;;
64873;SDS011;51367;45.204;38.576;2023-07-24T04:54:24;3.03;;;2.83;;
64873;SDS011;51367;45.204;38.576;2023-07-24T04:56:50;4.28;;;3.30;;
64873;SDS011;51367;45.204;38.576;2023-07-24T04:59:16;3.72;;;3.42;;
64873;SDS011;51367;45.204;38.576;2023-07-24T05:01:42;2.88;;;2.67;;
64873;SDS011;51367;45.204;38.576;2023-07-24T05:04:08;5.53;;;2.95;;
64873;SDS011;51367;45.204;38.576;2023-07-24T05:06:34;3.35;;;3.05;;
64873;SDS011;51367;45.204;38.576;2023-07-24T05:09:01;3.58;;;3.28;;
64873;SDS011;51367;45.204;38.576;2023-07-24T05:11:27;3.80;;;3.33;;
64873;SDS011;51367;45.204;38.576;2023-07-24T05:13:53;3.70;;;3.22;;
64873;SDS011;51367;45.204;38.576;2023-07-24T05:16:19;5.38;;;3.22;;
64873;SDS011;51367;45.204;38.576;2023-07-24T05:18:44;3.38;;;3.10;;
64873;SDS011;51367;45.204;38.576;2023-07-24T05:21:10;3.85;;;3.40;;
64873;SDS011;51367;45.204;38.576;2023-07-24T05:23:36;3.45;;;3.17;;
64873;SDS011;51367;45.204;38.576;2023-07-24T05:26:03;6.53;;;3.95;;
64873;SDS011;51367;45.204;38.576;2023-07-24T05:28:30;3.83;;;3.53;;
64873;SDS011;51367;45.204;38.576;2023-07-24T05:31:03;6.15;;;3.78;;
64873;SDS011;51367;45.204;38.576;2023-07-24T05:33:30;3.45;;;3.15;;
64873;SDS011;51367;45.204;38.576;2023-07-24T05:35:57;3.75;;;3.35;;
64873;SDS011;51367;45.204;38.576;2023-07-24T05:38:27;5.20;;;3.75;;
64873;SDS011;51367;45.204;38.576;2023-07-24T05:40:59;4.00;;;3.60;;
64873;SDS011;51367;45.204;38.576;2023-07-24T05:43:27;3.75;;;2.97;;
64873;SDS011;51367;45.204;38.576;2023-07-24T05:45:54;4.13;;;3.67;;
64873;SDS011;51367;45.204;38.576;2023-07-24T05:48:21;3.88;;;3.53;;
64873;SDS011;51367;45.204;38.576;2023-07-24T05:50:47;5.57;;;3.78;;
64873;SDS011;51367;45.204;38.576;2023-07-24T05:53:14;3.72;;;3.42;;
64873;SDS011;51367;45.204;38.576;2023-07-24T05:55:40;5.40;;;3.25;;
64873;SDS011;51367;45.204;38.576;2023-07-24T05:58:07;3.45;;;3.03;;
64873;SDS011;51367;45.204;38.576;2023-07-24T06:00:34;3.40;;;3.10;;
64873;SDS011;51367;45.204;38.576;2023-07-24T06:03:02;3.42;;;3.05;;
64873;SDS011;51367;45.204;38.576;2023-07-24T06:05:28;3.97;;;3.28;;
64873;SDS011;51367;45.204;38.576;2023-07-24T06:07:54;6.40;;;3.45;;
64873;SDS011;51367;45.204;38.576;2023-07-24T06:10:20;3.97;;;3.67;;
64873;SDS011;51367;45.204;38.576;2023-07-24T06:12:46;3.95;;;3.05;;
64873;SDS011;51367;45.204;38.576;2023-07-24T06:15:12;4.05;;;3.63;;
64873;SDS011;51367;45.204;38.576;2023-07-24T06:17:39;3.30;;;3.00;;
64873;SDS011;51367;45.204;38.576;2023-07-24T06:20:05;3.88;;;3.25;;
64873;SDS011;51367;45.204;38.576;2023-07-24T06:22:32;3.40;;;3.10;;
64873;SDS011;51367;45.204;38.576;2023-07-24T06:24:58;3.65;;;3.35;;
64873;SDS011;51367;45.204;38.576;2023-07-24T06:27:23;2.78;;;2.58;;
64873;SDS011;51367;45.204;38.576;2023-07-24T06:29:49;3.17;;;2.88;;
64873;SDS011;51367;45.204;38.576;2023-07-24T06:32:15;3.58;;;3.30;;
64873;SDS011;51367;45.204;38.576;2023-07-24T06:34:41;3.95;;;3.17;;
64873;SDS011;51367;45.204;38.576;2023-07-24T06:37:07;3.15;;;2.88;;
64873;SDS011;51367;45.204;38.576;2023-07-24T06:39:33;4.72;;;2.83;;
64873;SDS011;51367;45.204;38.576;2023-07-24T06:41:59;3.10;;;2.80;;
64873;SDS011;51367;45.204;38.576;2023-07-24T06:44:25;2.70;;;2.50;;
64873;SDS011;51367;45.204;38.576;2023-07-24T06:46:50;3.33;;;3.08;;
64873;SDS011;51367;45.204;38.576;2023-07-24T06:49:16;3.17;;;2.90;;
64873;SDS011;51367;45.204;38.576;2023-07-24T06:51:42;5.63;;;2.63;;
64873;SDS011;51367;45.204;38.576;2023-07-24T06:54:08;2.85;;;2.65;;
64873;SDS011;51367;45.204;38.576;2023-07-24T06:56:34;3.85;;;2.70;;
64873;SDS011;51367;45.204;38.576;2023-07-24T06:59:00;2.60;;;2.40;;
64873;SDS011;51367;45.204;38.576;2023-07-24T07:01:26;2.60;;;2.45;;
64873;SDS011;51367;45.204;38.576;2023-07-24T07:03:52;3.33;;;3.10;;
64873;SDS011;51367;45.204;38.576;2023-07-24T07:06:18;4.82;;;2.97;;
64873;SDS011;51367;45.204;38.576;2023-07-24T07:08:44;5.07;;;2.80;;
64873;SDS011;51367;45.204;38.576;2023-07-24T07:11:10;3.40;;;3.13;;
64873;SDS011;51367;45.204;38.576;2023-07-24T07:13:35;3.28;;;2.83;;
64873;SDS011;51367;45.204;38.576;2023-07-24T07:16:01;2.95;;;2.65;;
64873;SDS011;51367;45.204;38.576;2023-07-24T07:18:27;3.38;;;3.08;;
64873;SDS011;51367;45.204;38.576;2023-07-24T07:20:53;3.22;;;2.97;;
64873;SDS011;51367;45.204;38.576;2023-07-24T07:23:20;3.50;;;2.78;;
64873;SDS011;51367;45.204;38.576;2023-07-24T07:25:46;3.03;;;2.83;;
64873;SDS011;51367;45.204;38.576;2023-07-24T07:28:12;2.60;;;2.47;;
64873;SDS011;51367;45.204;38.576;2023-07-24T07:30:39;3.50;;;2.60;;
64873;SDS011;51367;45.204;38.576;2023-07-24T07:33:08;4.38;;;2.42;;
64873;SDS011;51367;45.204;38.576;2023-07-24T07:35:34;3.75;;;3.20;;
64873;SDS011;51367;45.204;38.576;2023-07-24T07:38:01;5.00;;;4.47;;
64873;SDS011;51367;45.204;38.576;2023-07-24T07:40:28;3.10;;;2.90;;
64873;SDS011;51367;45.204;38.576;2023-07-24T07:42:55;4.72;;;3.35;;
64873;SDS011;51367;45.204;38.576;2023-07-24T07:45:22;4.05;;;3.65;;
64873;SDS011;51367;45.204;38.576;2023-07-24T07:47:48;18.08;;;4.13;;
64873;SDS011;51367;45.204;38.576;2023-07-24T07:50:15;10.23;;;7.50;;
64873;SDS011;51367;45.204;38.576;2023-07-24T07:52:41;9.35;;;7.50;;
64873;SDS011;51367;45.204;38.576;2023-07-24T07:55:07;4.03;;;3.63;;
64873;SDS011;51367;45.204;38.576;2023-07-24T07:57:36;4.63;;;3.45;;
64873;SDS011;51367;45.204;38.576;2023-07-24T08:00:03;5.57;;;3.17;;
64873;SDS011;51367;45.204;38.576;2023-07-24T08:02:31;11.88;;;10.63;;
64873;SDS011;51367;45.204;38.576;2023-07-24T08:04:58;6.40;;;5.18;;
64873;SDS011;51367;45.204;38.576;2023-07-24T08:07:24;3.33;;;2.65;;
64873;SDS011;51367;45.204;38.576;2023-07-24T08:09:50;3.40;;;2.95;;
64873;SDS011;51367;45.204;38.576;2023-07-24T08:12:16;4.03;;;3.10;;
64873;SDS011;51367;45.204;38.576;2023-07-24T08:14:42;4.28;;;3.10;;
64873;SDS011;51367;45.204;38.576;2023-07-24T08:17:08;3.30;;;3.03;;
64873;SDS011;51367;45.204;38.576;2023-07-24T08:19:33;3.22;;;3.00;;
64873;SDS011;51367;45.204;38.576;2023-07-24T08:21:59;3.30;;;3.10;;
64873;SDS011;51367;45.204;38.576;2023-07-24T08:24:25;2.78;;;2.55;;
64873;SDS011;51367;45.204;38.576;2023-07-24T08:26:51;3.38;;;3.08;;
64873;SDS011;51367;45.204;38.576;2023-07-24T08:29:17;13.10;;;3.85;;
64873;SDS011;51367;45.204;38.576;2023-07-24T08:31:43;6.40;;;3.70;;
64873;SDS011;51367;45.204;38.576;2023-07-24T08:34:09;4.18;;;3.40;;
64873;SDS011;51367;45.204;38.576;2023-07-24T08:36:35;3.58;;;3.13;;
64873;SDS011;51367;45.204;38.576;2023-07-24T08:39:02;3.30;;;3.10;;
64873;SDS011;51367;45.204;38.576;2023-07-24T08:41:29;5.28;;;2.97;;
64873;SDS011;51367;45.204;38.576;2023-07-24T08:43:56;3.13;;;2.92;;
64873;SDS011;51367;45.204;38.576;2023-07-24T08:46:22;3.58;;;3.03;;
64873;SDS011;51367;45.204;38.576;2023-07-24T08:48:48;2.83;;;2.58;;
64873;SDS011;51367;45.204;38.576;2023-07-24T08:51:15;2.85;;;2.65;;
64873;SDS011;51367;45.204;38.576;2023-07-24T08:53:50;2.72;;;2.53;;
64873;SDS011;51367;45.204;38.576;2023-07-24T08:56:16;6.35;;;3.38;;
64873;SDS011;51367;45.204;38.576;2023-07-24T08:58:42;4.38;;;2.90;;
64873;SDS011;51367;45.204;38.576;2023-07-24T09:01:09;2.90;;;2.70;;
64873;SDS011;51367;45.204;38.576;2023-07-24T09:03:35;3.40;;;3.10;;
64873;SDS011;51367;45.204;38.576;2023-07-24T09:06:01;6.63;;;3.08;;
64873;SDS011;51367;45.204;38.576;2023-07-24T09:11:01;8.00;;;3.40;;
64873;SDS011;51367;45.204;38.576;2023-07-24T09:13:28;2.92;;;2.70;;
64873;SDS011;51367;45.204;38.576;2023-07-24T09:15:54;4.18;;;2.90;;
64873;SDS011;51367;45.204;38.576;2023-07-24T09:18:21;6.28;;;3.47;;
64873;SDS011;51367;45.204;38.576;2023-07-24T09:20:47;3.72;;;3.40;;
64873;SDS011;51367;45.204;38.576;2023-07-24T09:23:14;3.90;;;2.85;;
64873;SDS011;51367;45.204;38.576;2023-07-24T09:25:42;3.17;;;2.92;;
64873;SDS011;51367;45.204;38.576;2023-07-24T09:28:12;3.47;;;3.15;;
64873;SDS011;51367;45.204;38.576;2023-07-24T09:30:40;3.67;;;3.30;;
64873;SDS011;51367;45.204;38.576;2023-07-24T09:33:07;2.95;;;2.75;;
64873;SDS011;51367;45.204;38.576;2023-07-24T09:35:33;3.30;;;3.00;;
64873;SDS011;51367;45.204;38.576;2023-07-24T09:38:09;3.33;;;3.03;;
64873;SDS011;51367;45.204;38.576;2023-07-24T09:40:40;3.13;;;2.83;;
64873;SDS011;51367;45.204;38.576;2023-07-24T09:43:41;2.75;;;2.25;;
64873;SDS011;51367;45.204;38.576;2023-07-24T09:46:03;2.60;;;2.40;;
64873;SDS011;51367;45.204;38.576;2023-07-24T09:48:31;3.33;;;3.00;;
64873;SDS011;51367;45.204;38.576;2023-07-24T09:50:59;5.70;;;2.35;;
64873;SDS011;51367;45.204;38.576;2023-07-24T09:53:32;6.22;;;3.15;;
64873;SDS011;51367;45.204;38.576;2023-07-24T09:56:02;2.97;;;2.63;;
64873;SDS011;51367;45.204;38.576;2023-07-24T09:58:30;2.80;;;2.60;;
64873;SDS011;51367;45.204;38.576;2023-07-24T10:01:05;4.32;;;2.67;;
64873;SDS011;51367;45.204;38.576;2023-07-24T10:03:33;3.08;;;2.78;;
64873;SDS011;51367;45.204;38.576;2023-07-24T10:06:19;4.00;;;2.60;;
64873;SDS011;51367;45.204;38.576;2023-07-24T10:08:47;3.58;;;2.55;;
64873;SDS011;51367;45.204;38.576;2023-07-24T10:11:14;2.85;;;2.60;;
64873;SDS011;51367;45.204;38.576;2023-07-24T10:13:40;2.40;;;2.20;;
64873;SDS011;51367;45.204;38.576;2023-07-24T10:16:07;2.92;;;2.63;;
64873;SDS011;51367;45.204;38.576;2023-07-24T10:18:34;3.80;;;2.45;;
64873;SDS011;51367;45.204;38.576;2023-07-24T10:21:07;5.05;;;2.53;;
64873;SDS011;51367;45.204;38.576;2023-07-24T10:23:34;3.10;;;2.83;;
64873;SDS011;51367;45.204;38.576;2023-07-24T10:26:07;4.28;;;2.53;;
64873;SDS011;51367;45.204;38.576;2023-07-24T10:28:34;3.67;;;2.83;;
64873;SDS011;51367;45.204;38.576;2023-07-24T10:31:08;6.55;;;2.75;;
64873;SDS011;51367;45.204;38.576;2023-07-24T10:33:55;3.30;;;3.00;;
64873;SDS011;51367;45.204;38.576;2023-07-24T10:36:22;4.75;;;2.70;;
64873;SDS011;51367;45.204;38.576;2023-07-24T10:38:53;2.83;;;2.53;;
64873;SDS011;51367;45.204;38.576;2023-07-24T10:41:20;3.42;;;2.50;;
64873;SDS011;51367;45.204;38.576;2023-07-24T10:43:47;2.33;;;2.20;;
64873;SDS011;51367;45.204;38.576;2023-07-24T10:46:15;4.63;;;2.60;;
64873;SDS011;51367;45.204;38.576;2023-07-24T10:48:43;3.58;;;2.53;;
64873;SDS011;51367;45.204;38.576;2023-07-24T10:51:10;7.68;;;3.13;;
64873;SDS011;51367;45.204;38.576;2023-07-24T10:53:41;2.90;;;2.60;;
64873;SDS011;51367;45.204;38.576;2023-07-24T10:56:11;5.93;;;2.90;;
64873;SDS011;51367;45.204;38.576;2023-07-24T10:58:37;3.33;;;2.70;;
64873;SDS011;51367;45.204;38.576;2023-07-24T11:01:04;2.75;;;2.45;;
64873;SDS011;51367;45.204;38.576;2023-07-24T11:03:31;2.78;;;2.58;;
64873;SDS011;51367;45.204;38.576;2023-07-24T11:05:57;2.88;;;2.53;;
64873;SDS011;51367;45.204;38.576;2023-07-24T11:08:24;2.78;;;2.58;;
64873;SDS011;51367;45.204;38.576;2023-07-24T11:10:51;3.90;;;3.60;;
64873;SDS011;51367;45.204;38.576;2023-07-24T11:13:19;3.63;;;3.33;;
64873;SDS011;51367;45.204;38.576;2023-07-24T11:15:47;2.95;;;2.75;;
64873;SDS011;51367;45.204;38.576;2023-07-24T11:18:14;2.50;;;2.30;;
64873;SDS011;51367;45.204;38.576;2023-07-24T11:20:47;2.30;;;2.20;;
64873;SDS011;51367;45.204;38.576;2023-07-24T11:23:15;5.00;;;2.50;;
64873;SDS011;51367;45.204;38.576;2023-07-24T11:25:42;3.00;;;2.70;;
64873;SDS011;51367;45.204;38.576;2023-07-24T11:28:09;5.00;;;2.28;;
64873;SDS011;51367;45.204;38.576;2023-07-24T11:30:37;4.43;;;2.53;;
64873;SDS011;51367;45.204;38.576;2023-07-24T11:33:04;15.90;;;2.95;;
64873;SDS011;51367;45.204;38.576;2023-07-24T11:35:33;3.08;;;2.88;;
64873;SDS011;51367;45.204;38.576;2023-07-24T11:38:00;3.72;;;2.80;;
64873;SDS011;51367;45.204;38.576;2023-07-24T11:41:00;2.90;;;2.70;;
64873;SDS011;51367;45.204;38.576;2023-07-24T11:43:20;3.90;;;2.90;;
64873;SDS011;51367;45.204;38.576;2023-07-24T11:45:47;3.28;;;2.97;;
64873;SDS011;51367;45.204;38.576;2023-07-24T11:48:21;3.45;;;2.50;;
64873;SDS011;51367;45.204;38.576;2023-07-24T11:50:52;2.47;;;2.30;;
64873;SDS011;51367;45.204;38.576;2023-07-24T11:53:24;2.85;;;2.65;;
64873;SDS011;51367;45.204;38.576;2023-07-24T11:55:54;11.75;;;3.30;;
64873;SDS011;51367;45.204;38.576;2023-07-24T11:58:24;5.57;;;2.83;;
64873;SDS011;51367;45.204;38.576;2023-07-24T12:00:51;2.85;;;2.65;;
64873;SDS011;51367;45.204;38.576;2023-07-24T12:03:20;2.88;;;2.60;;
64873;SDS011;51367;45.204;38.576;2023-07-24T12:05:46;3.15;;;2.85;;
64873;SDS011;51367;45.204;38.576;2023-07-24T12:08:13;3.00;;;2.80;;
64873;SDS011;51367;45.204;38.576;2023-07-24T12:10:43;4.72;;;3.50;;
64873;SDS011;51367;45.204;38.576;2023-07-24T12:13:09;3.20;;;2.90;;
64873;SDS011;51367;45.204;38.576;2023-07-24T12:15:34;2.88;;;2.67;;
64873;SDS011;51367;45.204;38.576;2023-07-24T12:18:04;3.58;;;3.00;;
64873;SDS011;51367;45.204;38.576;2023-07-24T12:20:31;3.05;;;2.80;;
64873;SDS011;51367;45.204;38.576;2023-07-24T12:22:57;3.15;;;2.85;;
64873;SDS011;51367;45.204;38.576;2023-07-24T12:25:23;3.13;;;2.92;;
64873;SDS011;51367;45.204;38.576;2023-07-24T12:27:49;2.90;;;2.70;;
64873;SDS011;51367;45.204;38.576;2023-07-24T12:30:15;4.15;;;2.95;;
64873;SDS011;51367;45.204;38.576;2023-07-24T12:32:41;2.90;;;2.70;;
64873;SDS011;51367;45.204;38.576;2023-07-24T12:35:08;3.55;;;3.28;;
64873;SDS011;51367;45.204;38.576;2023-07-24T12:37:35;4.28;;;2.58;;
64873;SDS011;51367;45.204;38.576;2023-07-24T12:40:01;4.45;;;2.80;;
64873;SDS011;51367;45.204;38.576;2023-07-24T12:42:27;2.78;;;2.55;;
64873;SDS011;51367;45.204;38.576;2023-07-24T12:44:53;5.70;;;3.17;;
64873;SDS011;51367;45.204;38.576;2023-07-24T12:47:19;4.00;;;3.22;;
64873;SDS011;51367;45.204;38.576;2023-07-24T12:49:45;2.30;;;2.20;;
64873;SDS011;51367;45.204;38.576;2023-07-24T12:52:11;3.30;;;2.60;;
64873;SDS011;51367;45.204;38.576;2023-07-24T12:54:37;4.80;;;3.08;;
64873;SDS011;51367;45.204;38.576;2023-07-24T12:57:03;3.50;;;2.70;;
64873;SDS011;51367;45.204;38.576;2023-07-24T12:59:29;4.15;;;2.97;;
64873;SDS011;51367;45.204;38.576;2023-07-24T13:01:55;5.55;;;3.13;;
64873;SDS011;51367;45.204;38.576;2023-07-24T13:04:22;2.75;;;2.53;;
64873;SDS011;51367;45.204;38.576;2023-07-24T13:06:48;3.00;;;2.80;;
64873;SDS011;51367;45.204;38.576;2023-07-24T13:09:14;5.97;;;2.83;;
64873;SDS011;51367;45.204;38.576;2023-07-24T13:11:40;4.72;;;2.97;;
64873;SDS011;51367;45.204;38.576;2023-07-24T13:14:06;2.60;;;2.40;;
64873;SDS011;51367;45.204;38.576;2023-07-24T13:16:32;3.75;;;2.75;;
64873;SDS011;51367;45.204;38.576;2023-07-24T13:18:58;2.78;;;2.47;;
64873;SDS011;51367;45.204;38.576;2023-07-24T13:21:24;2.72;;;2.53;;
64873;SDS011;51367;45.204;38.576;2023-07-24T13:23:50;2.58;;;2.38;;
64873;SDS011;51367;45.204;38.576;2023-07-24T13:26:16;7.78;;;2.85;;
64873;SDS011;51367;45.204;38.576;2023-07-24T13:28:42;3.08;;;2.88;;
64873;SDS011;51367;45.204;38.576;2023-07-24T13:31:15;4.15;;;3.20;;
64873;SDS011;51367;45.204;38.576;2023-07-24T13:33:43;5.20;;;2.78;;
64873;SDS011;51367;45.204;38.576;2023-07-24T13:36:09;12.00;;;2.67;;
64873;SDS011;51367;45.204;38.576;2023-07-24T13:38:35;3.63;;;2.83;;
64873;SDS011;51367;45.204;38.576;2023-07-24T13:41:01;2.90;;;2.70;;
64873;SDS011;51367;45.204;38.576;2023-07-24T13:43:31;4.40;;;2.78;;
64873;SDS011;51367;45.204;38.576;2023-07-24T13:45:58;3.15;;;2.85;;
64873;SDS011;51367;45.204;38.576;2023-07-24T13:48:24;10.35;;;3.15;;
64873;SDS011;51367;45.204;38.576;2023-07-24T13:50:52;2.60;;;2.45;;
64873;SDS011;51367;45.204;38.576;2023-07-24T13:53:18;5.35;;;2.92;;
64873;SDS011;51367;45.204;38.576;2023-07-24T13:55:44;2.88;;;2.67;;
64873;SDS011;51367;45.204;38.576;2023-07-24T13:58:10;4.68;;;2.53;;
64873;SDS011;51367;45.204;38.576;2023-07-24T14:00:37;2.53;;;2.33;;
64873;SDS011;51367;45.204;38.576;2023-07-24T14:03:02;6.63;;;2.70;;
64873;SDS011;51367;45.204;38.576;2023-07-24T14:05:28;3.20;;;2.90;;
64873;SDS011;51367;45.204;38.576;2023-07-24T14:07:54;11.20;;;3.08;;
64873;SDS011;51367;45.204;38.576;2023-07-24T14:10:20;4.60;;;2.53;;
64873;SDS011;51367;45.204;38.576;2023-07-24T14:12:46;8.23;;;3.50;;
64873;SDS011;51367;45.204;38.576;2023-07-24T14:15:12;3.75;;;2.80;;
64873;SDS011;51367;45.204;38.576;2023-07-24T14:17:38;12.27;;;2.90;;
64873;SDS011;51367;45.204;38.576;2023-07-24T14:20:04;3.72;;;2.70;;
64873;SDS011;51367;45.204;38.576;2023-07-24T14:22:31;10.85;;;3.35;;
64873;SDS011;51367;45.204;38.576;2023-07-24T14:24:57;8.10;;;2.78;;
64873;SDS011;51367;45.204;38.576;2023-07-24T14:27:23;5.18;;;2.30;;
64873;SDS011;51367;45.204;38.576;2023-07-24T14:29:48;3.00;;;2.80;;
64873;SDS011;51367;45.204;38.576;2023-07-24T14:32:14;2.88;;;2.67;;
64873;SDS011;51367;45.204;38.576;2023-07-24T14:34:41;5.70;;;2.47;;